Terminal Aerodrome Forecast
Issued by NWS Sterling, VA

Current Version | Previous Version | Text Only | Print | Product List | Glossary Off
Versions: 1 2 3 4 5 6 7 8 9 10 11 12 13 14 15 16 17 18 19 20 21 22 23 24

000
FTUS41 KLWX 272046 AAA
TAFDCA
TAF AMD
KDCA 272046Z 2721/2818 18014G19KT P6SM SCT050
     FM272300 18013G20KT P6SM BKN050
     FM280400 19008KT P6SM BKN050
     FM280900 25006KT P6SM BKN050
     FM281000 27006KT P6SM SCT050
     FM281200 32007KT P6SM SCT250
     FM281700 VRB03KT P6SM FEW250=

USA.gov is the U.S. government's official web portal to all federal, state and local government web resources and services.